createdAt,value
2019-03-10T00:00:14.724Z,0.00
2019-03-10T00:01:21.636Z,0.00
2019-03-10T00:02:14.551Z,0.00
2019-03-10T00:03:14.674Z,0.00
2019-03-10T00:04:14.386Z,0.00
2019-03-10T00:05:14.508Z,0.00
2019-03-10T00:06:14.228Z,0.00
2019-03-10T00:07:14.132Z,0.00
2019-03-10T00:08:14.132Z,0.00
2019-03-10T00:09:13.971Z,0.00
2019-03-10T00:10:13.881Z,0.00
2019-03-10T00:11:13.805Z,0.00
2019-03-10T00:12:13.708Z,0.00
2019-03-10T00:13:13.640Z,0.00
2019-03-10T00:14:15.580Z,0.00
2019-03-10T00:15:13.493Z,0.00
2019-03-10T00:16:13.557Z,0.00
2019-03-10T00:17:13.299Z,0.00
2019-03-10T00:18:13.220Z,0.00
2019-03-10T00:19:13.138Z,0.00
2019-03-10T00:20:13.046Z,0.00
2019-03-10T00:21:12.950Z,0.00
2019-03-10T00:22:12.984Z,0.00
2019-03-10T00:23:12.796Z,0.00
2019-03-10T00:24:12.708Z,0.00
2019-03-10T00:25:12.798Z,0.00
2019-03-10T00:26:12.532Z,0.00
2019-03-10T00:27:12.467Z,0.00
2019-03-10T00:28:12.371Z,0.00
2019-03-10T00:29:12.283Z,0.00
2019-03-10T00:30:12.276Z,0.00
2019-03-10T00:31:12.115Z,0.00
2019-03-10T00:32:12.025Z,0.00
2019-03-10T00:33:11.969Z,0.00
2019-03-10T00:34:12.553Z,0.00
2019-03-10T00:35:11.836Z,0.00
2019-03-10T00:36:11.689Z,0.00
2019-03-10T00:37:18.633Z,0.00
2019-03-10T00:38:11.547Z,0.00
2019-03-10T00:39:11.441Z,0.00
2019-03-10T00:40:11.472Z,0.00
2019-03-10T00:41:11.266Z,0.00
2019-03-10T00:42:11.183Z,0.00
2019-03-10T00:43:11.126Z,0.00
2019-03-10T00:44:11.012Z,0.00
2019-03-10T00:45:11.088Z,0.00
2019-03-10T00:46:10.845Z,0.00
2019-03-10T00:47:10.899Z,0.00
2019-03-10T00:48:10.692Z,0.00
2019-03-10T00:49:10.713Z,0.00
2019-03-10T00:50:10.508Z,0.00
2019-03-10T00:51:11.536Z,0.00
2019-03-10T00:52:10.348Z,0.00
2019-03-10T00:53:10.355Z,0.00
2019-03-10T00:54:10.174Z,0.00
2019-03-10T00:55:10.106Z,0.00
2019-03-10T00:56:10.148Z,0.00
2019-03-10T00:57:09.999Z,0.00
2019-03-10T00:58:09.852Z,0.00
2019-03-10T00:59:09.750Z,0.00
2019-03-10T01:00:09.752Z,0.00
2019-03-10T01:01:09.583Z,0.00
2019-03-10T01:02:09.505Z,0.00
2019-03-10T01:03:09.425Z,0.00
2019-03-10T01:04:09.675Z,0.00
2019-03-10T01:05:09.245Z,0.00
2019-03-10T01:06:09.163Z,0.00
2019-03-10T01:07:09.088Z,0.00
2019-03-10T01:08:09.003Z,0.00
2019-03-10T01:09:08.916Z,0.00
2019-03-10T01:10:09.000Z,0.00
2019-03-10T01:11:08.745Z,0.00
2019-03-10T01:12:08.657Z,0.00
2019-03-10T01:13:08.658Z,0.00
2019-03-10T01:14:08.486Z,0.00
2019-03-10T01:15:08.403Z,0.00
2019-03-10T01:16:08.424Z,0.00
2019-03-10T01:17:08.237Z,0.00
2019-03-10T01:18:08.180Z,0.00
2019-03-10T01:19:08.238Z,0.00
2019-03-10T01:20:07.983Z,0.00
2019-03-10T01:21:08.047Z,0.00
2019-03-10T01:22:07.809Z,0.00
2019-03-10T01:23:07.885Z,0.00
2019-03-10T01:24:07.644Z,0.00
2019-03-10T01:25:07.562Z,0.00
2019-03-10T01:26:07.672Z,0.00
2019-03-10T01:27:07.410Z,0.00
2019-03-10T01:28:07.304Z,0.00
2019-03-10T01:29:07.310Z,0.00
2019-03-10T01:30:07.144Z,0.00
2019-03-10T01:31:07.050Z,0.00
2019-03-10T01:32:07.096Z,0.00
2019-03-10T01:33:06.884Z,0.00
2019-03-10T01:34:06.817Z,0.00
2019-03-10T01:35:06.911Z,0.00
2019-03-10T01:36:06.634Z,0.00
2019-03-10T01:37:06.546Z,0.00
2019-03-10T01:38:06.520Z,0.00
2019-03-10T01:39:06.388Z,0.00
2019-03-10T01:40:06.292Z,0.00
2019-03-10T01:41:06.338Z,0.00
2019-03-10T01:42:06.127Z,0.00
2019-03-10T01:43:06.147Z,0.00
2019-03-10T01:44:05.999Z,0.00
2019-03-10T01:45:05.877Z,0.00
2019-03-10T01:46:05.962Z,0.00
2019-03-10T01:47:05.720Z,0.00
2019-03-10T01:48:05.620Z,0.00
2019-03-10T01:49:05.601Z,0.00
2019-03-10T01:50:05.450Z,0.00
2019-03-10T01:51:05.363Z,0.00
2019-03-10T01:52:05.387Z,0.00
2019-03-10T01:53:05.209Z,0.00
2019-03-10T01:54:05.160Z,0.00
2019-03-10T01:55:05.200Z,0.00
2019-03-10T01:56:04.952Z,0.00
2019-03-10T01:57:05.009Z,0.00
2019-03-10T01:58:04.785Z,0.00
2019-03-10T01:59:04.849Z,0.00
2019-03-10T02:00:04.608Z,0.00
2019-03-10T02:01:04.526Z,0.00
2019-03-10T02:02:04.452Z,0.00
2019-03-10T02:03:04.433Z,0.00
2019-03-10T02:04:04.282Z,0.00
2019-03-10T02:05:04.188Z,0.00
2019-03-10T02:06:04.103Z,0.00
2019-03-10T02:07:04.050Z,0.00
2019-03-10T02:08:03.946Z,0.00
2019-03-10T02:09:03.871Z,0.00
2019-03-10T02:10:03.767Z,0.00
2019-03-10T02:11:03.872Z,0.00
2019-03-10T02:12:03.598Z,0.00
2019-03-10T02:13:03.515Z,0.00
2019-03-10T02:14:03.449Z,0.00
2019-03-10T02:15:03.489Z,0.00
2019-03-10T02:16:03.268Z,0.00
2019-03-10T02:17:03.182Z,0.00
2019-03-10T02:18:03.312Z,0.00
2019-03-10T02:19:03.022Z,0.00
2019-03-10T02:20:02.927Z,0.00
2019-03-10T02:21:02.914Z,0.00
2019-03-10T02:22:02.761Z,0.00
2019-03-10T02:23:02.688Z,0.00
2019-03-10T02:24:02.776Z,0.00
2019-03-10T02:25:02.503Z,0.00
2019-03-10T02:26:02.421Z,0.00
2019-03-10T02:27:02.554Z,0.00
2019-03-10T02:28:02.254Z,0.00
2019-03-10T02:29:02.278Z,0.00
2019-03-10T02:30:02.162Z,0.00
2019-03-10T02:31:02.001Z,0.00
2019-03-10T02:32:01.966Z,0.00
2019-03-10T02:33:01.864Z,0.00
2019-03-10T02:34:01.811Z,0.00
2019-03-10T02:35:01.675Z,0.00
2019-03-10T02:36:01.584Z,0.00
2019-03-10T02:37:01.590Z,0.00
2019-03-10T02:38:01.408Z,0.00
2019-03-10T02:39:01.337Z,0.00
2019-03-10T02:40:01.437Z,0.00
2019-03-10T02:41:01.161Z,0.00
2019-03-10T02:42:01.219Z,0.00
2019-03-10T02:43:00.986Z,0.00
2019-03-10T02:44:01.054Z,0.00
2019-03-10T02:45:00.853Z,0.00
2019-03-10T02:46:00.735Z,0.00
2019-03-10T02:47:00.844Z,0.00
2019-03-10T02:48:00.566Z,0.00
2019-03-10T02:49:00.492Z,0.00
2019-03-10T02:50:00.495Z,0.00
2019-03-10T02:51:00.452Z,0.00
2019-03-10T02:52:00.225Z,0.00
2019-03-10T02:53:00.141Z,0.00
2019-03-10T02:54:00.080Z,0.00
2019-03-10T02:55:00.071Z,0.00
2019-03-10T02:55:59.888Z,0.00
2019-03-10T02:56:59.876Z,0.00
2019-03-10T02:57:59.722Z,0.00
2019-03-10T02:58:59.688Z,0.00
2019-03-10T02:59:59.564Z,0.00
2019-03-10T03:00:59.494Z,0.00
2019-03-10T03:01:59.390Z,0.00
2019-03-10T03:02:59.510Z,0.00
2019-03-10T03:03:59.232Z,0.00
2019-03-10T03:04:59.153Z,0.00
2019-03-10T03:05:59.150Z,0.00
2019-03-10T03:06:58.963Z,0.00
2019-03-10T03:07:58.877Z,0.00
2019-03-10T03:08:58.933Z,0.00
2019-03-10T03:09:58.724Z,0.00
2019-03-10T03:10:58.633Z,0.00
2019-03-10T03:11:58.751Z,0.00
2019-03-10T03:12:58.464Z,0.00
2019-03-10T03:13:58.373Z,0.00
2019-03-10T03:14:58.398Z,0.00
2019-03-10T03:15:58.205Z,0.00
2019-03-10T03:16:58.166Z,0.00
2019-03-10T03:17:58.035Z,0.00
2019-03-10T03:18:57.974Z,0.00
2019-03-10T03:19:57.880Z,0.00
2019-03-10T03:20:57.779Z,0.00
2019-03-10T03:21:57.791Z,0.00
2019-03-10T03:22:57.617Z,0.00
2019-03-10T03:23:57.523Z,0.00
2019-03-10T03:24:57.633Z,0.00
2019-03-10T03:25:57.370Z,0.00
2019-03-10T03:26:57.435Z,0.00
2019-03-10T03:27:57.194Z,0.00
2019-03-10T03:28:57.222Z,0.00
2019-03-10T03:29:57.037Z,0.00
2019-03-10T03:30:57.029Z,0.00
2019-03-10T03:31:56.857Z,0.00
2019-03-10T03:32:56.851Z,0.00
2019-03-10T03:33:56.705Z,0.00
2019-03-10T03:34:56.694Z,0.00
2019-03-10T03:35:56.514Z,0.00
2019-03-10T03:36:56.458Z,0.00
2019-03-10T03:37:56.344Z,0.00
2019-03-10T03:38:56.478Z,0.00
2019-03-10T03:39:56.190Z,0.00
2019-03-10T03:40:56.090Z,0.00
2019-03-10T03:41:56.077Z,0.00
2019-03-10T03:42:55.948Z,0.00
2019-03-10T03:43:55.838Z,0.00
2019-03-10T03:44:55.923Z,0.00
2019-03-10T03:45:55.668Z,0.00
2019-03-10T03:46:55.702Z,0.00
2019-03-10T03:47:55.499Z,0.00
2019-03-10T03:48:55.509Z,0.00
2019-03-10T03:49:55.344Z,0.00
2019-03-10T03:50:55.247Z,0.00
2019-03-10T03:51:55.325Z,0.00
2019-03-10T03:52:55.079Z,0.00
2019-03-10T03:53:54.995Z,0.00
2019-03-10T03:54:54.966Z,0.00
2019-03-10T03:55:54.824Z,0.00
2019-03-10T03:56:54.738Z,0.00
2019-03-10T03:57:54.749Z,0.00
2019-03-10T03:58:54.578Z,0.00
2019-03-10T03:59:54.497Z,0.00
2019-03-10T04:00:54.578Z,0.00
2019-03-10T04:01:54.313Z,0.00
2019-03-10T04:02:54.226Z,0.00
2019-03-10T04:03:54.175Z,0.00
2019-03-10T04:04:54.074Z,0.00
2019-03-10T04:05:53.984Z,0.00
2019-03-10T04:06:53.993Z,0.00
2019-03-10T04:07:53.813Z,0.00
2019-03-10T04:08:53.731Z,0.00
2019-03-10T04:09:53.851Z,0.00
2019-03-10T04:10:53.553Z,0.00
2019-03-10T04:11:53.466Z,0.00
2019-03-10T04:12:53.418Z,0.00
2019-03-10T04:13:53.301Z,0.00
2019-03-10T04:14:53.258Z,0.00
2019-03-10T04:15:53.124Z,0.00
2019-03-10T04:16:53.237Z,0.00
2019-03-10T04:17:52.958Z,0.00
2019-03-10T04:18:53.044Z,0.00
2019-03-10T04:19:52.807Z,0.00
2019-03-10T04:20:52.854Z,0.00
2019-03-10T04:21:52.623Z,0.00
2019-03-10T04:22:52.532Z,0.00
2019-03-10T04:23:52.465Z,0.00
2019-03-10T04:24:52.378Z,0.00
2019-03-10T04:25:52.276Z,0.00
2019-03-10T04:26:52.278Z,0.00
2019-03-10T04:27:52.110Z,0.00
2019-03-10T04:28:52.034Z,0.00
2019-03-10T04:29:52.094Z,0.00
2019-03-10T04:30:51.868Z,0.00
2019-03-10T04:31:51.766Z,0.00
2019-03-10T04:32:51.705Z,0.00
2019-03-10T04:33:51.597Z,0.00
2019-03-10T04:34:51.514Z,0.00
2019-03-10T04:35:51.551Z,0.00
2019-03-10T04:36:51.342Z,0.00
2019-03-10T04:37:51.328Z,0.00
2019-03-10T04:38:51.174Z,0.00
2019-03-10T04:39:51.134Z,0.00
2019-03-10T04:40:51.019Z,0.00
2019-03-10T04:41:50.944Z,0.00
2019-03-10T04:42:50.835Z,0.00
2019-03-10T04:43:50.958Z,0.00
2019-03-10T04:44:50.666Z,0.00
2019-03-10T04:45:50.596Z,0.00
2019-03-10T04:46:50.567Z,0.00
2019-03-10T04:47:50.416Z,0.00
2019-03-10T04:48:50.327Z,0.00
2019-03-10T04:49:50.384Z,0.00
2019-03-10T04:50:50.187Z,0.00
2019-03-10T04:51:50.078Z,0.00
2019-03-10T04:52:50.201Z,0.00
2019-03-10T04:53:49.900Z,0.00
2019-03-10T04:54:50.007Z,0.00
2019-03-10T04:55:49.748Z,0.00
2019-03-10T04:56:49.817Z,0.00
2019-03-10T04:57:49.568Z,0.00
2019-03-10T04:58:49.624Z,0.00
2019-03-10T04:59:49.399Z,0.00
2019-03-10T05:00:49.462Z,0.00
2019-03-10T05:01:49.221Z,0.00
2019-03-10T05:02:49.239Z,0.00
2019-03-10T05:03:49.062Z,0.00
2019-03-10T05:04:49.048Z,0.00
2019-03-10T05:05:48.894Z,0.00
2019-03-10T05:06:48.801Z,0.00
2019-03-10T05:07:48.866Z,0.00
2019-03-10T05:08:48.627Z,0.00
2019-03-10T05:09:48.555Z,0.00
2019-03-10T05:10:48.504Z,0.00
2019-03-10T05:11:48.381Z,0.00
2019-03-10T05:12:48.285Z,0.00
2019-03-10T05:13:48.294Z,0.00
2019-03-10T05:14:48.117Z,0.00
2019-03-10T05:15:48.050Z,0.00
2019-03-10T05:16:48.103Z,0.00
2019-03-10T05:17:47.869Z,0.00
2019-03-10T05:18:47.914Z,0.00
2019-03-10T05:19:47.693Z,0.00
2019-03-10T05:20:47.748Z,0.00
2019-03-10T05:21:47.522Z,0.00
2019-03-10T05:22:47.532Z,0.00
2019-03-10T05:23:47.363Z,0.00
2019-03-10T05:24:47.339Z,0.00
2019-03-10T05:25:47.195Z,0.00
2019-03-10T05:26:47.145Z,0.00
2019-03-10T05:27:47.018Z,0.00
2019-03-10T05:28:46.953Z,0.00
2019-03-10T05:29:46.842Z,0.00
2019-03-10T05:30:46.792Z,0.00
2019-03-10T05:31:46.677Z,0.00
2019-03-10T05:32:46.588Z,0.00
2019-03-10T05:33:46.578Z,0.00
2019-03-10T05:34:46.427Z,0.00
2019-03-10T05:35:46.344Z,0.00
2019-03-10T05:36:46.393Z,4.00
2019-03-10T05:37:46.171Z,4.00
2019-03-10T05:38:46.204Z,0.00
2019-03-10T05:39:45.991Z,4.00
2019-03-10T05:40:46.044Z,4.00
2019-03-10T05:41:45.828Z,4.00
2019-03-10T05:42:45.816Z,8.00
2019-03-10T05:43:45.651Z,4.00
2019-03-10T05:44:45.618Z,4.00
2019-03-10T05:45:45.505Z,8.00
2019-03-10T05:46:45.423Z,12.00
2019-03-10T05:47:45.310Z,16.00
2019-03-10T05:48:45.338Z,16.00
2019-03-10T05:49:45.149Z,20.00
2019-03-10T05:50:45.180Z,24.00
2019-03-10T05:51:44.969Z,28.00
2019-03-10T05:52:44.957Z,36.00
2019-03-10T05:53:44.800Z,36.00
2019-03-10T05:54:44.721Z,40.00
2019-03-10T05:55:44.642Z,48.00
2019-03-10T05:56:44.542Z,60.00
2019-03-10T05:57:44.478Z,68.00
2019-03-10T05:58:44.375Z,76.00
2019-03-10T05:59:44.298Z,84.00
2019-03-10T06:00:45.353Z,88.00
2019-03-10T06:01:44.117Z,96.00
2019-03-10T06:02:44.038Z,108.00
2019-03-10T06:03:44.009Z,120.00
2019-03-10T06:04:43.864Z,132.00
2019-03-10T06:05:43.783Z,144.00
2019-03-10T06:06:43.755Z,164.00
2019-03-10T06:07:43.608Z,184.00
2019-03-10T06:08:43.521Z,208.00
2019-03-10T06:09:43.540Z,240.00
2019-03-10T06:10:43.360Z,296.00
2019-03-10T06:11:43.297Z,352.00
2019-03-10T06:12:43.185Z,384.00
2019-03-10T06:13:43.101Z,404.00
2019-03-10T06:14:43.060Z,416.00
2019-03-10T06:15:42.939Z,420.00
2019-03-10T06:16:42.904Z,432.00
2019-03-10T06:17:42.784Z,452.00
2019-03-10T06:18:42.778Z,452.00
2019-03-10T06:19:42.582Z,456.00
2019-03-10T06:20:42.589Z,460.00
2019-03-10T06:21:42.425Z,424.00
2019-03-10T06:22:42.328Z,408.00
2019-03-10T06:23:42.402Z,408.00
2019-03-10T06:24:42.168Z,392.00
2019-03-10T06:25:42.069Z,376.00
2019-03-10T06:26:42.055Z,384.00
2019-03-10T06:27:41.905Z,432.00
2019-03-10T06:28:41.816Z,532.00
2019-03-10T06:29:41.827Z,616.00
2019-03-10T06:30:41.644Z,608.00
2019-03-10T06:31:41.673Z,596.00
2019-03-10T06:32:41.476Z,648.00
2019-03-10T06:33:41.446Z,748.00
2019-03-10T06:34:41.307Z,856.00
2019-03-10T06:35:41.254Z,904.00
2019-03-10T06:36:41.144Z,1220.00
2019-03-10T06:37:41.048Z,1660.00
2019-03-10T06:38:40.969Z,1692.00
2019-03-10T06:39:40.880Z,1224.00
2019-03-10T06:40:40.816Z,920.00
2019-03-10T06:41:40.914Z,800.00
2019-03-10T06:42:40.618Z,812.00
2019-03-10T06:43:40.565Z,812.00
2019-03-10T06:44:40.492Z,848.00
2019-03-10T06:45:40.360Z,916.00
2019-03-10T06:46:40.334Z,1056.00
2019-03-10T06:47:40.205Z,1132.00
2019-03-10T06:48:40.105Z,1136.00
2019-03-10T06:49:40.116Z,1200.00
2019-03-10T06:50:39.936Z,1488.00
2019-03-10T06:51:39.867Z,1532.00
2019-03-10T06:52:39.933Z,1248.00
2019-03-10T06:53:39.689Z,1028.00
2019-03-10T06:54:39.744Z,840.00
2019-03-10T06:55:39.514Z,680.00
2019-03-10T06:56:39.580Z,708.00
2019-03-10T06:57:39.344Z,1032.00
2019-03-10T06:58:39.364Z,1548.00
2019-03-10T06:59:39.169Z,1856.00
2019-03-10T07:00:39.167Z,1784.00
2019-03-10T07:01:39.031Z,1724.00
2019-03-10T07:02:38.982Z,2288.00
2019-03-10T07:03:39.573Z,2604.00
2019-03-10T07:04:38.786Z,2652.00
2019-03-10T07:05:38.655Z,2852.00
2019-03-10T07:06:38.623Z,2988.00
2019-03-10T07:07:38.493Z,3268.00
2019-03-10T07:08:38.399Z,3268.00
2019-03-10T07:09:38.421Z,2900.00
2019-03-10T07:10:38.235Z,2372.00
2019-03-10T07:11:38.157Z,2028.00
2019-03-10T07:12:38.135Z,1868.00
2019-03-10T07:13:39.694Z,1752.00
2019-03-10T07:14:37.886Z,1868.00
2019-03-10T07:15:37.847Z,1692.00
2019-03-10T07:16:37.736Z,1456.00
2019-03-10T07:17:37.637Z,1328.00
2019-03-10T07:18:37.652Z,1612.00
2019-03-10T07:19:37.462Z,2160.00
2019-03-10T07:20:37.456Z,2792.00
2019-03-10T07:21:37.310Z,3052.00
2019-03-10T07:22:37.263Z,3712.00
2019-03-10T07:23:37.133Z,3536.00
2019-03-10T07:24:37.032Z,2636.00
2019-03-10T07:25:37.078Z,2276.00
2019-03-10T07:26:36.875Z,2092.00
2019-03-10T07:27:36.782Z,2380.00
2019-03-10T07:28:36.894Z,2544.00
2019-03-10T07:29:36.625Z,2832.00
2019-03-10T07:30:36.701Z,3312.00
2019-03-10T07:31:36.469Z,4000.00
2019-03-10T07:32:36.509Z,4436.00
2019-03-10T07:33:36.264Z,4336.00
2019-03-10T07:34:36.317Z,5260.00
2019-03-10T07:35:36.144Z,5096.00
2019-03-10T07:36:36.225Z,5448.00
2019-03-10T07:37:35.943Z,4780.00
2019-03-10T07:38:35.844Z,4392.00
2019-03-10T07:39:35.949Z,4080.00
2019-03-10T07:40:35.669Z,3572.00
2019-03-10T07:41:35.588Z,3928.00
2019-03-10T07:42:35.518Z,5784.00
2019-03-10T07:43:35.413Z,8120.00
2019-03-10T07:44:35.342Z,8092.00
2019-03-10T07:45:35.368Z,5488.00
2019-03-10T07:46:35.173Z,3808.00
2019-03-10T07:47:35.088Z,3556.00
2019-03-10T07:48:35.184Z,4888.00
2019-03-10T07:49:34.901Z,5992.00
2019-03-10T07:50:34.994Z,6124.00
2019-03-10T07:51:34.735Z,5896.00
2019-03-10T07:52:34.669Z,5672.00
2019-03-10T07:53:34.559Z,5116.00
2019-03-10T07:54:34.476Z,4868.00
2019-03-10T07:55:34.410Z,5508.00
2019-03-10T07:56:34.308Z,6308.00
2019-03-10T07:57:34.233Z,5840.00
2019-03-10T07:58:34.225Z,5580.00
2019-03-10T07:59:34.048Z,5356.00
2019-03-10T08:00:34.033Z,7156.00
2019-03-10T08:01:33.893Z,7376.00
2019-03-10T08:02:33.873Z,8872.00
2019-03-10T08:03:33.705Z,7228.00
2019-03-10T08:04:33.651Z,5136.00
2019-03-10T08:05:33.552Z,5336.00
2019-03-10T08:06:33.662Z,7832.00
2019-03-10T08:07:33.383Z,9040.00
2019-03-10T08:08:33.473Z,8372.00
2019-03-10T08:09:33.207Z,9000.00
2019-03-10T08:10:33.121Z,7100.00
2019-03-10T08:11:33.085Z,10436.00
2019-03-10T08:12:32.958Z,8696.00
2019-03-10T08:13:32.855Z,7916.00
2019-03-10T08:14:32.899Z,7172.00
2019-03-10T08:15:32.693Z,8296.00
2019-03-10T08:16:32.711Z,8516.00
2019-03-10T08:17:32.537Z,8932.00
2019-03-10T08:18:32.435Z,10540.00
2019-03-10T08:19:32.529Z,10784.00
2019-03-10T08:20:32.268Z,8788.00
2019-03-10T08:21:32.189Z,10880.00
2019-03-10T08:22:32.173Z,9472.00
2019-03-10T08:23:32.011Z,9508.00
2019-03-10T08:24:31.941Z,9172.00
2019-03-10T08:25:31.989Z,12580.00
2019-03-10T08:26:31.858Z,10068.00
2019-03-10T08:27:31.829Z,10224.00
2019-03-10T08:28:31.603Z,9168.00
2019-03-10T08:29:32.221Z,10828.00
2019-03-10T08:30:31.419Z,15324.00
2019-03-10T08:31:31.374Z,16820.00
2019-03-10T08:32:31.263Z,23968.00
2019-03-10T08:33:31.390Z,21632.00
2019-03-10T08:34:31.085Z,15636.00
2019-03-10T08:35:31.007Z,20384.00
2019-03-10T08:36:30.995Z,15480.00
2019-03-10T08:37:30.843Z,19680.00
2019-03-10T08:38:30.757Z,14752.00
2019-03-10T08:39:30.752Z,13056.00
2019-03-10T08:40:30.574Z,12036.00
2019-03-10T08:41:30.564Z,20224.00
2019-03-10T08:42:30.428Z,17632.00
2019-03-10T08:43:30.369Z,23424.00
2019-03-10T08:44:30.243Z,23200.00
2019-03-10T08:45:30.156Z,27456.00
2019-03-10T08:46:30.081Z,35328.00
2019-03-10T08:47:30.117Z,46240.00
2019-03-10T08:48:29.914Z,34016.00
2019-03-10T08:49:29.837Z,17792.00
2019-03-10T08:50:29.740Z,13268.00
2019-03-10T08:51:29.663Z,12368.00
2019-03-10T08:52:29.597Z,12520.00
2019-03-10T08:53:29.491Z,14228.00
2019-03-10T08:54:29.482Z,19424.00
2019-03-10T08:55:29.327Z,23648.00
2019-03-10T08:56:29.288Z,30592.00
2019-03-10T08:57:29.178Z,53088.00
2019-03-10T08:58:29.094Z,73696.00
2019-03-10T08:59:28.995Z,49536.00
2019-03-10T09:00:29.105Z,34240.00
2019-03-10T09:01:28.826Z,26464.00
2019-03-10T09:02:28.950Z,25856.00
2019-03-10T09:03:28.675Z,26624.00
2019-03-10T09:04:28.581Z,26336.00
2019-03-10T09:05:28.525Z,26976.00
2019-03-10T09:06:28.422Z,22208.00
2019-03-10T09:07:28.336Z,18272.00
2019-03-10T09:08:28.386Z,18176.00
2019-03-10T09:09:28.172Z,17312.00
2019-03-10T09:10:28.095Z,18816.00
2019-03-10T09:11:28.155Z,19136.00
2019-03-10T09:12:27.926Z,17600.00
2019-03-10T09:13:27.857Z,22624.00
2019-03-10T09:14:27.970Z,23360.00
2019-03-10T09:15:27.696Z,22304.00
2019-03-10T09:16:27.605Z,28096.00
2019-03-10T09:17:27.583Z,32096.00
2019-03-10T09:18:27.450Z,31200.00
2019-03-10T09:19:27.351Z,29184.00
2019-03-10T09:20:27.397Z,27360.00
2019-03-10T09:21:27.192Z,37024.00
2019-03-10T09:22:27.153Z,27200.00
2019-03-10T09:23:27.044Z,24832.00
2019-03-10T09:24:26.972Z,23712.00
2019-03-10T09:25:26.874Z,20000.00
2019-03-10T09:26:26.779Z,17040.00
2019-03-10T09:27:28.561Z,16108.00
2019-03-10T09:28:26.635Z,15168.00
2019-03-10T09:29:26.542Z,14080.00
2019-03-10T09:30:26.493Z,15208.00
2019-03-10T09:31:26.372Z,15260.00
2019-03-10T09:32:26.299Z,17004.00
2019-03-10T09:33:26.341Z,22880.00
2019-03-10T09:34:26.129Z,28736.00
2019-03-10T09:35:26.051Z,29216.00
2019-03-10T09:36:26.023Z,25152.00
2019-03-10T09:37:25.891Z,21984.00
2019-03-10T09:38:25.822Z,17824.00
2019-03-10T09:39:26.760Z,16540.00
2019-03-10T09:40:25.646Z,18080.00
2019-03-10T09:41:25.648Z,13460.00
2019-03-10T09:42:25.476Z,10772.00
2019-03-10T09:43:25.532Z,10908.00
2019-03-10T09:44:25.324Z,9072.00
2019-03-10T09:45:25.313Z,8168.00
2019-03-10T09:46:25.154Z,7676.00
2019-03-10T09:47:25.120Z,7872.00
2019-03-10T09:48:24.996Z,7632.00
2019-03-10T09:49:24.927Z,6052.00
2019-03-10T09:50:24.823Z,6524.00
2019-03-10T09:51:24.938Z,7388.00
2019-03-10T09:52:24.665Z,12452.00
2019-03-10T09:53:24.778Z,15980.00
2019-03-10T09:54:24.492Z,14588.00
2019-03-10T09:55:24.414Z,13704.00
2019-03-10T09:56:24.360Z,14612.00
2019-03-10T09:57:24.249Z,14084.00
2019-03-10T09:58:24.181Z,12676.00
2019-03-10T09:59:24.175Z,13476.00
2019-03-10T10:00:24.000Z,13132.00
2019-03-10T10:01:24.609Z,10256.00
2019-03-10T10:02:24.853Z,8632.00
2019-03-10T10:03:23.764Z,6776.00
2019-03-10T10:04:23.798Z,5608.00
2019-03-10T10:05:23.597Z,10220.00
2019-03-10T10:06:23.612Z,14476.00
2019-03-10T10:07:23.420Z,17824.00
2019-03-10T10:08:23.441Z,20320.00
2019-03-10T10:09:23.258Z,20288.00
2019-03-10T10:10:23.170Z,20384.00
2019-03-10T10:11:23.100Z,20960.00
2019-03-10T10:12:23.007Z,23584.00
2019-03-10T10:13:22.941Z,26688.00
2019-03-10T10:14:23.091Z,29248.00
2019-03-10T10:15:22.765Z,32128.00
2019-03-10T10:16:22.673Z,34560.00
2019-03-10T10:17:22.658Z,36256.00
2019-03-10T10:18:22.532Z,36896.00
2019-03-10T10:19:22.423Z,34048.00
2019-03-10T10:20:22.475Z,34656.00
2019-03-10T10:21:22.263Z,51328.00
2019-03-10T10:22:22.275Z,78208.00
2019-03-10T10:23:22.122Z,81312.00
2019-03-10T10:24:22.087Z,96224.00
2019-03-10T10:25:21.935Z,89728.00
2019-03-10T10:26:21.852Z,62272.00
2019-03-10T10:27:21.876Z,47232.00
2019-03-10T10:28:21.711Z,58272.00
2019-03-10T10:29:21.608Z,86176.00
2019-03-10T10:30:21.587Z,88704.00
2019-03-10T10:31:21.458Z,78336.00
2019-03-10T10:32:21.383Z,74848.00
2019-03-10T10:33:21.319Z,72928.00
2019-03-10T10:34:21.230Z,73184.00
2019-03-10T10:35:21.132Z,72768.00
2019-03-10T10:36:21.052Z,72960.00
2019-03-10T10:37:20.967Z,77440.00
2019-03-10T10:38:20.948Z,77120.00
2019-03-10T10:39:20.841Z,77664.00
2019-03-10T10:40:20.758Z,77408.00
2019-03-10T10:41:20.649Z,81984.00
2019-03-10T10:42:20.579Z,34016.00
2019-03-10T10:43:20.575Z,16540.00
2019-03-10T10:44:20.424Z,40128.00
2019-03-10T10:45:20.344Z,57696.00
2019-03-10T10:46:20.388Z,24160.00
2019-03-10T10:47:20.188Z,74592.00
2019-03-10T10:48:20.105Z,32224.00
2019-03-10T10:49:20.244Z,84896.00
2019-03-10T10:50:19.949Z,55808.00
2019-03-10T10:51:19.856Z,87488.00
2019-03-10T10:52:19.828Z,83008.00
2019-03-10T10:53:21.551Z,79040.00
2019-03-10T10:54:19.666Z,83648.00
2019-03-10T10:55:19.556Z,20992.00
2019-03-10T10:56:19.483Z,38016.00
2019-03-10T10:57:19.438Z,29824.00
2019-03-10T10:58:19.302Z,92320.00
2019-03-10T10:59:19.243Z,52448.00
2019-03-10T11:00:19.252Z,43584.00
2019-03-10T11:01:19.067Z,40288.00
2019-03-10T11:02:19.064Z,31424.00
2019-03-10T11:03:18.905Z,25408.00
2019-03-10T11:04:18.898Z,23424.00
2019-03-10T11:05:18.747Z,19648.00
2019-03-10T11:06:19.807Z,19264.00
2019-03-10T11:07:18.587Z,22464.00
2019-03-10T11:08:18.513Z,23136.00
2019-03-10T11:09:18.450Z,20640.00
2019-03-10T11:10:18.355Z,21024.00
2019-03-10T11:11:18.277Z,20736.00
2019-03-10T11:12:18.191Z,21408.00
2019-03-10T11:13:18.111Z,20800.00
2019-03-10T11:14:18.046Z,17824.00
2019-03-10T11:15:17.944Z,15060.00
2019-03-10T11:16:17.874Z,12708.00
2019-03-10T11:17:17.791Z,11168.00
2019-03-10T11:18:17.712Z,12700.00
2019-03-10T11:19:17.633Z,13688.00
2019-03-10T11:20:17.552Z,13500.00
2019-03-10T11:21:17.465Z,14392.00
2019-03-10T11:22:17.390Z,12744.00
2019-03-10T11:23:17.307Z,13060.00
2019-03-10T11:24:17.227Z,16868.00
2019-03-10T11:25:17.145Z,22368.00
2019-03-10T11:26:17.056Z,28992.00
2019-03-10T11:27:16.968Z,37920.00
2019-03-10T11:28:16.897Z,43456.00
2019-03-10T11:29:16.818Z,104160.00
2019-03-10T11:30:16.732Z,91552.00
2019-03-10T11:31:16.641Z,88384.00
2019-03-10T11:32:16.558Z,90144.00
2019-03-10T11:33:16.607Z,48192.00
2019-03-10T11:34:16.409Z,64288.00
2019-03-10T11:35:16.315Z,27264.00
2019-03-10T11:36:16.419Z,35360.00
2019-03-10T11:37:16.153Z,23744.00
2019-03-10T11:38:16.229Z,27616.00
2019-03-10T11:39:16.005Z,30624.00
2019-03-10T11:40:16.038Z,32704.00
2019-03-10T11:41:15.832Z,39104.00
2019-03-10T11:42:15.846Z,34400.00
2019-03-10T11:43:15.675Z,35456.00
2019-03-10T11:44:15.682Z,33760.00
2019-03-10T11:45:15.508Z,26144.00
2019-03-10T11:46:15.471Z,20064.00
2019-03-10T11:47:15.353Z,18784.00
2019-03-10T11:48:15.571Z,22592.00
2019-03-10T11:49:15.203Z,26176.00
2019-03-10T11:50:15.410Z,25408.00
2019-03-10T11:51:15.029Z,28672.00
2019-03-10T11:52:14.989Z,36640.00
2019-03-10T11:53:19.049Z,30752.00
2019-03-10T11:54:14.828Z,26528.00
2019-03-10T11:55:14.821Z,42016.00
2019-03-10T11:56:14.704Z,26528.00
2019-03-10T11:57:14.532Z,35904.00
2019-03-10T11:58:14.450Z,23680.00
2019-03-10T11:59:15.680Z,26432.00
2019-03-10T12:00:14.297Z,31808.00
2019-03-10T12:01:14.224Z,30688.00
2019-03-10T12:02:16.437Z,30496.00
2019-03-10T12:03:14.050Z,23104.00
2019-03-10T12:04:24.703Z,23616.00
2019-03-10T12:06:22.649Z,39520.00
2019-03-10T12:08:24.674Z,39904.00
2019-03-10T12:09:13.560Z,56864.00
2019-03-10T12:10:13.701Z,31872.00
2019-03-10T12:11:23.672Z,45152.00
2019-03-10T12:12:19.663Z,74560.00
2019-03-10T12:13:16.171Z,45504.00
2019-03-10T12:14:13.991Z,29440.00
2019-03-10T12:15:15.678Z,31328.00
2019-03-10T12:16:13.658Z,30688.00
2019-03-10T12:17:14.219Z,68928.00
2019-03-10T12:18:15.161Z,18656.00
2019-03-10T12:19:13.062Z,28608.00
2019-03-10T12:20:14.268Z,23296.00
2019-03-10T12:21:12.919Z,25152.00
2019-03-10T12:22:15.677Z,21888.00
2019-03-10T12:23:12.435Z,44768.00
2019-03-10T12:24:12.545Z,36832.00
2019-03-10T12:25:13.974Z,47072.00
2019-03-10T12:26:12.547Z,32288.00
2019-03-10T12:27:13.388Z,66912.00
2019-03-10T12:28:12.030Z,95808.00
2019-03-10T12:29:13.099Z,95808.00
2019-03-10T12:30:11.981Z,55040.00
2019-03-10T12:31:11.988Z,27680.00
2019-03-10T12:32:12.230Z,44384.00
2019-03-10T12:33:11.876Z,36096.00